createdAt,value
2017-07-19T00:00:59.960Z,22.80
2017-07-19T00:03:28.152Z,22.80
2017-07-19T00:05:55.589Z,22.80
2017-07-19T00:08:23.044Z,22.80
2017-07-19T00:10:50.493Z,22.70
2017-07-19T00:13:17.937Z,22.70
2017-07-19T00:15:45.378Z,22.70
2017-07-19T00:18:12.803Z,22.60
2017-07-19T00:20:40.235Z,22.70
2017-07-19T00:23:08.445Z,22.60
2017-07-19T00:25:35.881Z,22.60
2017-07-19T00:28:03.318Z,22.60
2017-07-19T00:30:30.752Z,22.60
2017-07-19T00:32:58.188Z,22.60
2017-07-19T00:35:25.638Z,22.60
2017-07-19T00:37:53.056Z,22.60
2017-07-19T00:40:21.274Z,22.60
2017-07-19T00:42:48.715Z,22.60
2017-07-19T00:45:16.152Z,22.50
2017-07-19T00:47:44.361Z,22.40
2017-07-19T00:50:11.787Z,22.40
2017-07-19T00:52:39.233Z,22.30
2017-07-19T00:55:07.444Z,22.30
2017-07-19T00:57:34.875Z,22.20
2017-07-19T01:00:02.311Z,22.10
2017-07-19T01:02:29.750Z,22.10
2017-07-19T01:04:57.189Z,22.00
2017-07-19T01:07:24.633Z,22.00
2017-07-19T01:09:52.056Z,22.00
2017-07-19T01:12:19.504Z,22.10
2017-07-19T01:14:46.938Z,22.00
2017-07-19T01:17:14.372Z,22.00
2017-07-19T01:19:41.818Z,22.00
2017-07-19T01:22:09.275Z,21.90
2017-07-19T01:24:36.705Z,21.90
2017-07-19T01:27:04.165Z,21.90
2017-07-19T01:29:31.593Z,21.90
2017-07-19T01:31:59.792Z,21.90
2017-07-19T01:34:27.218Z,21.80
2017-07-19T01:36:55.433Z,21.80
2017-07-19T01:39:22.859Z,21.80
2017-07-19T01:41:51.061Z,21.90
2017-07-19T01:44:18.499Z,21.90
2017-07-19T01:46:45.923Z,21.90
2017-07-19T01:49:13.355Z,21.90
2017-07-19T01:51:40.804Z,21.90
2017-07-19T01:54:08.239Z,21.80
2017-07-19T01:56:35.663Z,21.70
2017-07-19T01:59:03.104Z,21.70
2017-07-19T02:01:30.537Z,21.70
2017-07-19T02:03:57.967Z,21.60
2017-07-19T02:06:25.405Z,21.60
2017-07-19T02:08:53.614Z,21.50
2017-07-19T02:11:21.048Z,21.50
2017-07-19T02:13:48.482Z,21.50
2017-07-19T02:16:16.684Z,21.50
2017-07-19T02:18:44.124Z,21.50
2017-07-19T02:21:12.314Z,21.50
2017-07-19T02:23:39.747Z,21.50
2017-07-19T02:26:07.952Z,21.40
2017-07-19T02:28:35.380Z,21.40
2017-07-19T02:31:03.575Z,21.40
2017-07-19T02:33:31.001Z,21.30
2017-07-19T02:35:58.436Z,21.40
2017-07-19T02:38:25.867Z,21.40
2017-07-19T02:40:53.305Z,21.30
2017-07-19T02:43:20.737Z,21.40
2017-07-19T02:45:48.941Z,21.20
2017-07-19T02:48:16.360Z,21.20
2017-07-19T02:50:44.568Z,21.20
2017-07-19T02:53:11.992Z,21.20
2017-07-19T02:55:40.195Z,21.20
2017-07-19T02:58:07.625Z,21.20
2017-07-19T03:00:35.095Z,21.20
2017-07-19T03:03:02.538Z,21.20
2017-07-19T03:05:29.973Z,21.20
2017-07-19T03:07:57.400Z,21.20
2017-07-19T03:10:24.835Z,21.30
2017-07-19T03:12:52.268Z,21.20
2017-07-19T03:15:20.472Z,21.10
2017-07-19T03:17:47.912Z,21.10
2017-07-19T03:20:16.174Z,21.10
2017-07-19T03:22:50.046Z,21.10
2017-07-19T03:25:17.472Z,21.10
2017-07-19T03:27:44.905Z,21.10
2017-07-19T03:30:13.105Z,21.00
2017-07-19T03:32:40.540Z,21.00
2017-07-19T03:35:07.963Z,21.00
2017-07-19T03:37:35.401Z,21.10
2017-07-19T03:40:02.828Z,21.10
2017-07-19T03:42:30.273Z,21.00
2017-07-19T03:44:57.704Z,21.00
2017-07-19T03:47:25.899Z,20.90
2017-07-19T03:49:53.334Z,20.90
2017-07-19T03:52:20.774Z,20.90
2017-07-19T03:54:48.204Z,20.90
2017-07-19T03:57:15.636Z,21.00
2017-07-19T03:59:43.064Z,21.00
2017-07-19T04:02:10.505Z,21.00
2017-07-19T04:04:37.945Z,21.00
2017-07-19T04:07:05.377Z,21.00
2017-07-19T04:09:32.813Z,21.10
2017-07-19T04:12:00.273Z,21.10
2017-07-19T04:14:27.742Z,21.10
2017-07-19T04:16:55.169Z,21.10
2017-07-19T04:19:23.373Z,21.10
2017-07-19T04:21:51.816Z,21.10
2017-07-19T04:24:20.017Z,21.10
2017-07-19T04:26:47.457Z,21.10
2017-07-19T04:29:20.235Z,21.20
2017-07-19T04:31:48.446Z,21.20
2017-07-19T04:34:15.881Z,21.20
2017-07-19T04:36:43.308Z,21.20
2017-07-19T04:39:11.515Z,21.30
2017-07-19T04:41:39.364Z,21.30
2017-07-19T04:44:07.567Z,21.30
2017-07-19T04:46:35.007Z,21.30
2017-07-19T04:49:02.440Z,21.30
2017-07-19T04:51:29.884Z,21.50
2017-07-19T04:53:57.329Z,21.60
2017-07-19T04:56:24.781Z,21.60
2017-07-19T04:58:52.220Z,21.70
2017-07-19T05:01:19.648Z,21.70
2017-07-19T05:03:47.083Z,21.70
2017-07-19T05:06:14.517Z,21.70
2017-07-19T05:08:41.961Z,21.60
2017-07-19T05:11:09.401Z,21.70
2017-07-19T05:13:36.827Z,21.70
2017-07-19T05:16:04.269Z,21.70
2017-07-19T05:18:32.468Z,21.80
2017-07-19T05:20:59.905Z,21.80
2017-07-19T05:23:28.108Z,22.00
2017-07-19T05:25:55.552Z,21.90
2017-07-19T05:28:22.981Z,22.00
2017-07-19T05:30:51.191Z,22.10
2017-07-19T05:33:18.625Z,22.10
2017-07-19T05:35:46.823Z,22.30
2017-07-19T05:38:14.247Z,22.30
2017-07-19T05:40:42.456Z,22.50
2017-07-19T05:43:09.888Z,22.50
2017-07-19T05:45:37.328Z,22.50
2017-07-19T05:48:04.784Z,22.60
2017-07-19T05:50:32.226Z,22.50
2017-07-19T05:52:59.646Z,22.70
2017-07-19T05:55:27.083Z,22.80
2017-07-19T05:57:54.511Z,22.80
2017-07-19T06:00:21.936Z,22.90
2017-07-19T06:02:49.376Z,23.00
2017-07-19T06:05:16.812Z,23.10
2017-07-19T06:07:44.244Z,23.10
2017-07-19T06:10:12.466Z,23.40
2017-07-19T06:12:39.905Z,23.40
2017-07-19T06:15:07.344Z,23.60
2017-07-19T06:17:34.777Z,23.80
2017-07-19T06:20:02.205Z,23.90
2017-07-19T06:22:29.641Z,24.10
2017-07-19T06:24:57.078Z,24.40
2017-07-19T06:27:24.513Z,24.40
2017-07-19T06:29:52.716Z,24.50
2017-07-19T06:32:20.152Z,24.50
2017-07-19T06:34:48.349Z,24.60
2017-07-19T06:37:15.793Z,24.60
2017-07-19T06:39:43.989Z,25.10
2017-07-19T06:42:11.442Z,25.00
2017-07-19T06:44:38.852Z,25.20
2017-07-19T06:47:06.293Z,25.20
2017-07-19T06:52:27.248Z,25.70
2017-07-19T06:54:55.539Z,26.00
2017-07-19T06:57:22.984Z,25.90
2017-07-19T06:59:50.418Z,26.40
2017-07-19T07:02:17.865Z,26.80
2017-07-19T07:04:45.297Z,27.00
2017-07-19T07:07:12.740Z,27.40
2017-07-19T07:09:40.163Z,27.70
2017-07-19T07:12:07.612Z,28.00
2017-07-19T07:14:35.032Z,27.70
2017-07-19T07:17:02.480Z,28.10
2017-07-19T07:19:29.905Z,28.10
2017-07-19T07:21:57.349Z,27.90
2017-07-19T07:24:24.779Z,28.30
2017-07-19T07:26:52.200Z,28.70
2017-07-19T07:29:19.631Z,29.00
2017-07-19T07:31:47.063Z,29.20
2017-07-19T07:34:14.495Z,29.40
2017-07-19T07:36:41.986Z,29.70
2017-07-19T07:39:09.424Z,29.80
2017-07-19T07:41:36.846Z,29.80
2017-07-19T07:44:04.296Z,29.90
2017-07-19T07:46:32.647Z,29.80
2017-07-19T07:49:00.856Z,30.50
2017-07-19T07:51:28.421Z,30.50
2017-07-19T07:53:55.852Z,30.80
2017-07-19T07:56:23.284Z,30.90
2017-07-19T07:58:50.723Z,31.10
2017-07-19T08:01:18.146Z,31.10
2017-07-19T08:03:45.583Z,31.10
2017-07-19T08:06:13.021Z,31.00
2017-07-19T08:08:41.228Z,31.50
2017-07-19T08:11:08.652Z,31.40
2017-07-19T08:13:36.076Z,31.70
2017-07-19T08:16:03.498Z,31.80
2017-07-19T08:18:30.932Z,31.80
2017-07-19T08:20:58.355Z,31.80
2017-07-19T08:23:26.556Z,32.30
2017-07-19T08:25:53.982Z,32.30
2017-07-19T08:28:21.420Z,32.40
2017-07-19T08:30:48.903Z,32.60
2017-07-19T08:33:16.334Z,32.80
2017-07-19T08:35:43.781Z,33.10
2017-07-19T08:38:11.203Z,33.30
2017-07-19T08:40:38.632Z,33.00
2017-07-19T08:43:06.816Z,33.40
2017-07-19T08:45:34.250Z,33.40
2017-07-19T08:48:01.667Z,33.60
2017-07-19T08:50:29.121Z,33.80
2017-07-19T08:52:56.537Z,34.00
2017-07-19T08:55:24.751Z,34.00
2017-07-19T08:57:52.190Z,34.00
2017-07-19T09:00:19.615Z,34.10
2017-07-19T09:02:47.041Z,34.20
2017-07-19T09:05:14.468Z,34.30
2017-07-19T09:07:41.895Z,34.50
2017-07-19T09:10:10.086Z,34.80
2017-07-19T09:12:38.510Z,34.80
2017-07-19T09:15:05.920Z,34.70
2017-07-19T09:17:33.360Z,34.70
2017-07-19T09:20:01.564Z,34.70
2017-07-19T09:22:28.996Z,34.70
2017-07-19T09:24:57.188Z,34.90
2017-07-19T09:27:24.620Z,34.90
2017-07-19T09:29:52.812Z,35.10
2017-07-19T09:32:20.244Z,35.00
2017-07-19T09:34:47.692Z,35.10
2017-07-19T09:37:15.126Z,35.30
2017-07-19T09:39:42.607Z,35.10
2017-07-19T09:42:10.045Z,35.10
2017-07-19T09:44:37.481Z,35.30
2017-07-19T09:47:04.916Z,35.40
2017-07-19T09:49:32.331Z,35.50
2017-07-19T09:51:59.766Z,35.60
2017-07-19T09:54:27.193Z,35.50
2017-07-19T09:56:54.620Z,35.40
2017-07-19T09:59:24.832Z,35.40
2017-07-19T10:01:53.028Z,35.20
2017-07-19T10:04:20.452Z,35.20
2017-07-19T10:06:47.906Z,35.30
2017-07-19T10:09:15.326Z,35.00
2017-07-19T10:11:43.763Z,35.10
2017-07-19T10:14:11.184Z,35.20
2017-07-19T10:16:38.625Z,35.50
2017-07-19T10:19:06.044Z,35.50
2017-07-19T10:21:33.486Z,35.50
2017-07-19T10:24:00.936Z,35.70
2017-07-19T10:26:28.361Z,35.90
2017-07-19T10:28:55.803Z,35.90
2017-07-19T10:31:23.232Z,35.90
2017-07-19T10:33:50.659Z,35.70
2017-07-19T10:36:18.088Z,35.60
2017-07-19T10:38:45.516Z,35.60
2017-07-19T10:41:12.945Z,35.50
2017-07-19T10:43:40.396Z,35.50
2017-07-19T10:46:08.581Z,35.60
2017-07-19T10:48:36.020Z,35.60
2017-07-19T10:51:04.207Z,35.70
2017-07-19T10:53:32.407Z,35.70
2017-07-19T10:55:59.865Z,35.70
2017-07-19T10:58:27.302Z,35.80
2017-07-19T11:00:54.724Z,35.80
2017-07-19T11:03:22.175Z,35.80
2017-07-19T11:05:49.592Z,35.90
2017-07-19T11:08:17.028Z,35.90
2017-07-19T11:10:44.459Z,35.80
2017-07-19T11:13:11.888Z,36.00
2017-07-19T11:15:39.325Z,35.80
2017-07-19T11:18:06.752Z,36.00
2017-07-19T11:20:34.172Z,36.00
2017-07-19T11:23:01.614Z,35.80
2017-07-19T11:25:29.055Z,35.60
2017-07-19T11:27:56.480Z,35.60
2017-07-19T11:30:23.907Z,35.70
2017-07-19T11:32:51.343Z,35.70
2017-07-19T11:35:18.781Z,35.70
2017-07-19T11:37:46.195Z,35.80
2017-07-19T11:40:14.414Z,36.20
2017-07-19T11:42:41.845Z,36.20
2017-07-19T11:45:09.284Z,36.30
2017-07-19T11:47:37.482Z,36.40
2017-07-19T11:50:04.916Z,36.40
2017-07-19T11:52:33.117Z,36.40
2017-07-19T11:55:00.553Z,36.40
2017-07-19T11:57:27.981Z,36.30
2017-07-19T11:59:55.421Z,36.10
2017-07-19T12:02:22.882Z,36.00
2017-07-19T12:04:50.310Z,36.10
2017-07-19T12:07:17.742Z,36.10
2017-07-19T12:09:45.168Z,36.20
2017-07-19T12:12:12.594Z,35.90
2017-07-19T12:14:40.020Z,35.70
2017-07-19T12:17:07.449Z,35.60
2017-07-19T12:19:35.648Z,35.40
2017-07-19T12:22:03.085Z,35.40
2017-07-19T12:24:31.275Z,35.30
2017-07-19T12:26:58.703Z,35.30
2017-07-19T12:29:26.919Z,35.20
2017-07-19T12:31:54.363Z,35.20
2017-07-19T12:34:21.793Z,35.00
2017-07-19T12:36:49.996Z,34.80
2017-07-19T12:39:17.419Z,34.90
2017-07-19T12:41:44.854Z,34.90
2017-07-19T12:44:12.289Z,34.90
2017-07-19T12:46:39.722Z,34.80
2017-07-19T12:49:07.139Z,34.80
2017-07-19T12:51:34.584Z,34.90
2017-07-19T12:54:02.024Z,34.90
2017-07-19T12:56:29.446Z,34.90
2017-07-19T12:58:56.871Z,34.80
2017-07-19T13:01:24.309Z,34.70
2017-07-19T13:03:52.561Z,34.70
2017-07-19T13:06:19.988Z,34.90
2017-07-19T13:08:47.411Z,34.90
2017-07-19T13:11:14.853Z,34.90
2017-07-19T13:13:42.288Z,35.00
2017-07-19T13:16:09.725Z,34.90
2017-07-19T13:18:37.153Z,34.80
2017-07-19T13:21:04.584Z,34.90
2017-07-19T13:23:32.014Z,34.90
2017-07-19T13:25:59.538Z,34.70
2017-07-19T13:28:26.957Z,34.60
2017-07-19T13:30:54.386Z,34.70
2017-07-19T13:33:21.817Z,34.70
2017-07-19T13:35:49.240Z,34.70
2017-07-19T13:38:17.456Z,34.70
2017-07-19T13:40:44.888Z,34.70
2017-07-19T13:43:12.312Z,34.80
2017-07-19T13:45:39.740Z,34.90
2017-07-19T13:48:07.177Z,34.90
2017-07-19T13:50:34.611Z,34.80
2017-07-19T13:53:02.037Z,34.90
2017-07-19T13:55:29.479Z,34.90
2017-07-19T13:57:56.905Z,34.80
2017-07-19T14:00:24.333Z,34.70
2017-07-19T14:02:52.537Z,34.60
2017-07-19T14:05:19.950Z,34.70
2017-07-19T14:07:47.412Z,34.70
2017-07-19T14:10:15.621Z,34.80
2017-07-19T14:12:43.045Z,34.70
2017-07-19T14:15:11.236Z,34.70
2017-07-19T14:17:38.674Z,34.70
2017-07-19T14:20:06.948Z,34.70
2017-07-19T14:22:34.384Z,34.70
2017-07-19T14:25:01.862Z,34.70
2017-07-19T14:27:29.317Z,34.60
2017-07-19T14:29:56.745Z,34.60
2017-07-19T14:32:24.223Z,34.50
2017-07-19T14:34:52.834Z,34.50
2017-07-19T14:37:21.022Z,34.50
2017-07-19T14:39:48.461Z,34.50
2017-07-19T14:42:16.651Z,34.50
2017-07-19T14:44:44.083Z,34.50
2017-07-19T14:47:12.277Z,34.60
2017-07-19T14:49:39.707Z,34.60
2017-07-19T14:52:07.137Z,34.60
2017-07-19T14:54:34.578Z,34.60
2017-07-19T14:57:02.031Z,34.50
2017-07-19T14:59:29.453Z,34.60
2017-07-19T15:01:56.884Z,34.60
2017-07-19T15:04:24.325Z,34.60
2017-07-19T15:06:51.756Z,34.50
2017-07-19T15:09:19.184Z,34.60
2017-07-19T15:11:46.619Z,34.40
2017-07-19T15:14:14.825Z,34.30
2017-07-19T15:16:42.257Z,34.30
2017-07-19T15:19:09.689Z,34.20
2017-07-19T15:21:37.116Z,34.20
2017-07-19T15:24:04.556Z,34.20
2017-07-19T15:26:31.979Z,34.10
2017-07-19T15:29:00.202Z,33.90
2017-07-19T15:31:27.629Z,33.90
2017-07-19T15:33:55.052Z,33.90
2017-07-19T15:36:22.490Z,34.00
2017-07-19T15:38:50.909Z,33.90
2017-07-19T15:41:18.344Z,33.90
2017-07-19T15:43:45.777Z,33.90
2017-07-19T15:46:13.217Z,33.90
2017-07-19T15:48:40.649Z,33.90
2017-07-19T15:51:08.081Z,33.80
2017-07-19T15:53:36.462Z,33.70
2017-07-19T15:56:03.892Z,33.50
2017-07-19T15:58:31.326Z,33.40
2017-07-19T16:00:58.755Z,33.30
2017-07-19T16:03:26.194Z,33.10
2017-07-19T16:05:53.629Z,33.00
2017-07-19T16:08:21.062Z,32.90
2017-07-19T16:10:48.484Z,32.70
2017-07-19T16:13:15.925Z,32.70
2017-07-19T16:15:44.120Z,32.50
2017-07-19T16:18:11.565Z,32.50
2017-07-19T16:20:38.998Z,32.30
2017-07-19T16:23:06.425Z,32.20
2017-07-19T16:25:33.866Z,32.10
2017-07-19T16:28:01.280Z,32.00
2017-07-19T16:30:29.481Z,32.00
2017-07-19T16:32:56.916Z,32.00
2017-07-19T16:35:25.109Z,31.80
2017-07-19T16:37:52.593Z,31.80
2017-07-19T16:40:20.016Z,31.80
2017-07-19T16:42:47.456Z,31.80
2017-07-19T16:45:15.653Z,31.70
2017-07-19T16:47:43.085Z,31.60
2017-07-19T16:50:11.283Z,31.60
2017-07-19T16:52:38.803Z,31.60
2017-07-19T16:55:06.254Z,31.50
2017-07-19T16:57:33.704Z,31.60
2017-07-19T17:00:01.168Z,31.60
2017-07-19T17:02:28.596Z,31.50
2017-07-19T17:04:56.024Z,31.40
2017-07-19T17:07:23.461Z,31.40
2017-07-19T17:09:51.657Z,31.30
2017-07-19T17:12:19.087Z,31.30
2017-07-19T17:14:47.292Z,31.10
2017-07-19T17:17:14.740Z,31.10
2017-07-19T17:19:42.165Z,30.80
2017-07-19T17:22:09.600Z,30.60
2017-07-19T17:24:37.032Z,30.40
2017-07-19T17:27:04.464Z,30.20
2017-07-19T17:29:31.916Z,30.10
2017-07-19T17:31:59.381Z,30.10
2017-07-19T17:34:26.805Z,30.10
2017-07-19T17:36:54.249Z,29.80
2017-07-19T17:39:21.673Z,29.70
2017-07-19T17:41:49.112Z,29.50
2017-07-19T17:44:16.540Z,29.40
2017-07-19T17:46:44.735Z,29.20
2017-07-19T17:49:12.165Z,29.20
2017-07-19T17:51:39.583Z,29.20
2017-07-19T17:54:07.013Z,29.00
2017-07-19T17:56:34.431Z,29.00
2017-07-19T17:59:01.863Z,28.80
2017-07-19T18:01:29.302Z,28.80
2017-07-19T18:03:56.733Z,28.80
2017-07-19T18:06:24.160Z,28.80
2017-07-19T18:08:54.444Z,28.80
2017-07-19T18:11:21.870Z,28.70
2017-07-19T18:13:49.326Z,28.70
2017-07-19T18:16:16.748Z,28.70
2017-07-19T18:18:44.197Z,28.80
2017-07-19T18:21:11.701Z,28.80
2017-07-19T18:23:53.714Z,28.70
2017-07-19T18:26:21.898Z,28.70
2017-07-19T18:28:49.350Z,28.60
2017-07-19T18:31:17.764Z,28.70
2017-07-19T18:33:45.203Z,28.60
2017-07-19T18:36:14.396Z,28.60
2017-07-19T18:38:41.825Z,28.60
2017-07-19T18:41:09.257Z,28.60
2017-07-19T18:43:36.692Z,28.50
2017-07-19T18:46:04.130Z,28.50
2017-07-19T18:48:31.566Z,28.40
2017-07-19T18:50:58.997Z,28.40
2017-07-19T18:53:30.124Z,28.50
2017-07-19T18:55:58.395Z,28.60
2017-07-19T18:58:42.675Z,28.60
2017-07-19T19:01:10.118Z,28.60
2017-07-19T19:03:37.545Z,28.50
2017-07-19T19:06:04.985Z,28.40
2017-07-19T19:08:32.428Z,28.40
2017-07-19T19:10:59.852Z,28.30
2017-07-19T19:13:27.284Z,28.20
2017-07-19T19:15:54.712Z,28.10
2017-07-19T19:18:22.152Z,28.00
2017-07-19T19:20:49.596Z,27.80
2017-07-19T19:23:17.032Z,27.50
2017-07-19T19:25:44.469Z,27.50
2017-07-19T19:28:11.888Z,27.30
2017-07-19T19:30:41.328Z,27.20
2017-07-19T19:33:09.795Z,27.00
2017-07-19T19:35:37.244Z,27.00
2017-07-19T19:38:04.668Z,26.90
2017-07-19T19:40:35.384Z,26.70
2017-07-19T19:43:03.907Z,26.70
2017-07-19T19:45:31.360Z,26.30
2017-07-19T19:47:58.786Z,26.20
2017-07-19T19:50:28.265Z,26.20
2017-07-19T19:53:08.945Z,26.10
2017-07-19T19:55:36.373Z,26.00
2017-07-19T19:58:04.573Z,25.90
2017-07-19T20:00:32.953Z,25.90
2017-07-19T20:03:00.384Z,25.80
2017-07-19T20:05:27.816Z,25.80
2017-07-19T20:07:55.257Z,25.60
2017-07-19T20:10:22.681Z,25.50
2017-07-19T20:15:59.177Z,25.50
2017-07-19T20:18:26.604Z,25.40
2017-07-19T20:21:01.925Z,25.40
2017-07-19T20:23:29.360Z,25.30
2017-07-19T20:25:56.799Z,25.20
2017-07-19T20:28:24.233Z,25.20
2017-07-19T20:30:51.655Z,25.20
2017-07-19T20:33:19.096Z,25.20
2017-07-19T20:35:46.523Z,25.20
2017-07-19T20:38:13.968Z,25.20
2017-07-19T20:40:46.092Z,25.10
2017-07-19T20:43:13.563Z,25.10
2017-07-19T20:48:36.721Z,24.90
2017-07-19T20:51:04.937Z,24.90
2017-07-19T20:53:36.149Z,24.80
2017-07-19T20:56:04.369Z,24.60
2017-07-19T20:58:31.814Z,24.60
2017-07-19T21:01:01.438Z,24.60
2017-07-19T21:03:28.864Z,24.60
2017-07-19T21:05:56.296Z,24.50
2017-07-19T21:08:23.731Z,24.40
2017-07-19T21:10:51.212Z,24.10
2017-07-19T21:13:18.644Z,24.00
2017-07-19T21:15:46.078Z,23.90
2017-07-19T21:18:13.516Z,23.90
2017-07-19T21:20:40.956Z,23.90
2017-07-19T21:23:09.165Z,23.80
2017-07-19T21:25:36.592Z,23.80
2017-07-19T21:28:04.028Z,23.70
2017-07-19T21:30:31.553Z,23.60
2017-07-19T21:33:09.768Z,23.50
2017-07-19T21:35:37.202Z,23.30
2017-07-19T21:38:18.683Z,23.40
2017-07-19T21:40:46.107Z,23.40
2017-07-19T21:43:13.548Z,23.30
2017-07-19T21:45:40.984Z,23.10
2017-07-19T21:48:08.441Z,23.10
2017-07-19T21:50:35.872Z,23.00
2017-07-19T21:53:03.297Z,23.00
2017-07-19T21:55:41.768Z,23.00
2017-07-19T21:58:09.201Z,22.90
2017-07-19T22:00:36.641Z,22.90
2017-07-19T22:03:04.068Z,22.90
2017-07-19T22:05:32.272Z,22.80
2017-07-19T22:08:00.388Z,22.80
2017-07-19T22:10:27.938Z,22.80
2017-07-19T22:12:55.361Z,22.90
2017-07-19T22:15:22.796Z,22.70
2017-07-19T22:17:50.229Z,22.60
2017-07-19T22:20:17.664Z,22.60
2017-07-19T22:22:45.100Z,22.50
2017-07-19T22:25:12.543Z,22.50
2017-07-19T22:27:39.968Z,22.40
2017-07-19T22:30:07.406Z,22.40
2017-07-19T22:32:34.831Z,22.20
2017-07-19T22:35:02.265Z,22.30
2017-07-19T22:37:29.696Z,22.10
2017-07-19T22:39:57.132Z,22.20
2017-07-19T22:42:24.556Z,22.20
2017-07-19T22:44:52.003Z,22.10
2017-07-19T22:47:19.436Z,22.10
2017-07-19T22:49:46.874Z,22.10
2017-07-19T22:52:14.299Z,22.20
2017-07-19T22:54:41.733Z,22.20
2017-07-19T22:57:09.171Z,22.20
2017-07-19T22:59:36.605Z,22.20
2017-07-19T23:02:04.065Z,22.30
2017-07-19T23:04:31.468Z,22.30
2017-07-19T23:06:58.912Z,22.30
2017-07-19T23:09:26.344Z,22.40
2017-07-19T23:11:53.776Z,22.40
2017-07-19T23:14:21.201Z,22.40
2017-07-19T23:16:48.631Z,22.40
2017-07-19T23:19:16.060Z,22.40
2017-07-19T23:21:43.501Z,22.50
2017-07-19T23:24:10.929Z,22.40
2017-07-19T23:26:38.371Z,22.50
2017-07-19T23:29:05.797Z,22.50
2017-07-19T23:31:33.240Z,22.50
2017-07-19T23:34:00.672Z,22.50
2017-07-19T23:36:28.107Z,22.50
2017-07-19T23:38:55.537Z,22.40
2017-07-19T23:41:22.966Z,22.50
2017-07-19T23:43:50.389Z,22.50
2017-07-19T23:46:17.827Z,22.50
2017-07-19T23:48:45.261Z,22.40
2017-07-19T23:51:12.714Z,22.50
2017-07-19T23:53:40.148Z,22.50
2017-07-19T23:56:08.352Z,22.40
2017-07-19T23:58:35.821Z,22.40
